createdAt,value
2023-01-10T00:00:20.247Z,6.10
2023-01-10T00:04:48.255Z,6.10
2023-01-10T00:08:57.444Z,6.00
2023-01-10T00:13:24.549Z,6.10
2023-01-10T00:17:33.336Z,6.10
2023-01-10T00:21:41.890Z,6.10
2023-01-10T00:25:50.492Z,6.10
2023-01-10T00:30:00.631Z,6.10
2023-01-10T00:34:09.176Z,6.10
2023-01-10T00:38:18.248Z,6.10
2023-01-10T00:46:58.516Z,6.20
2023-01-10T00:51:07.453Z,6.20
2023-01-10T00:55:16.184Z,6.20
2023-01-10T00:59:25.228Z,6.30
2023-01-10T01:03:33.866Z,6.30
2023-01-10T01:07:42.480Z,6.30
2023-01-10T01:11:51.104Z,6.30
2023-01-10T01:16:20.627Z,6.40
2023-01-10T01:20:29.253Z,6.40
2023-01-10T01:24:39.403Z,6.40
2023-01-10T01:28:48.050Z,6.40
2023-01-10T01:32:56.778Z,6.40
2023-01-10T01:37:24.963Z,6.40
2023-01-10T01:41:51.514Z,6.30
2023-01-10T01:46:03.565Z,6.30
2023-01-10T01:50:45.123Z,6.40
2023-01-10T01:54:55.875Z,6.40
2023-01-10T01:59:28.286Z,6.40
2023-01-10T02:03:37.519Z,6.40
2023-01-10T02:07:49.183Z,6.40
2023-01-10T02:11:57.717Z,6.30
2023-01-10T02:16:06.575Z,6.30
2023-01-10T02:20:16.891Z,6.20
2023-01-10T02:24:49.955Z,6.20
2023-01-10T02:29:20.912Z,6.10
2023-01-10T02:33:41.620Z,6.00
2023-01-10T02:38:26.801Z,6.00
2023-01-10T02:43:01.138Z,6.00
2023-01-10T02:47:10.546Z,5.90
2023-01-10T02:51:38.462Z,5.80
2023-01-10T02:56:13.889Z,5.80
2023-01-10T03:00:42.123Z,5.80
2023-01-10T03:04:53.763Z,5.80
2023-01-10T03:09:35.512Z,5.80
2023-01-10T03:13:56.323Z,5.70
2023-01-10T03:18:08.027Z,5.70
2023-01-10T03:22:18.074Z,5.70
2023-01-10T03:26:32.475Z,5.70
2023-01-10T03:30:47.250Z,5.60
2023-01-10T03:34:57.158Z,5.60
2023-01-10T03:39:25.590Z,5.70
2023-01-10T03:44:16.496Z,5.60
2023-01-10T03:48:28.204Z,5.60
2023-01-10T03:52:37.820Z,5.60
2023-01-10T03:56:49.841Z,5.60
2023-01-10T04:00:58.825Z,5.60
2023-01-10T04:05:08.226Z,5.60
2023-01-10T04:09:16.849Z,5.60
2023-01-10T04:13:25.386Z,5.60
2023-01-10T04:17:33.938Z,5.70
2023-01-10T04:21:42.553Z,5.70
2023-01-10T04:25:51.080Z,5.70
2023-01-10T04:29:59.625Z,5.60
2023-01-10T04:34:09.331Z,5.60
2023-01-10T04:38:18.603Z,5.60
2023-01-10T04:42:27.228Z,5.60
2023-01-10T04:46:36.108Z,5.50
2023-01-10T04:51:04.554Z,5.50
2023-01-10T04:55:13.183Z,5.40
2023-01-10T04:59:21.781Z,5.50
2023-01-10T05:03:30.349Z,5.40
2023-01-10T05:07:39.276Z,5.50
2023-01-10T05:11:47.902Z,5.50
2023-01-10T05:15:58.429Z,5.50
2023-01-10T05:20:07.951Z,5.40
2023-01-10T05:24:16.561Z,5.40
2023-01-10T05:28:25.181Z,5.50
2023-01-10T05:32:53.065Z,5.50
2023-01-10T05:37:01.559Z,5.40
2023-01-10T05:41:10.115Z,5.40
2023-01-10T05:45:18.745Z,5.40
2023-01-10T05:49:27.274Z,5.50
2023-01-10T05:53:35.902Z,5.40
2023-01-10T05:57:44.451Z,5.30
2023-01-10T06:01:53.082Z,5.40
2023-01-10T06:06:03.373Z,5.30
2023-01-10T06:10:12.251Z,5.30
2023-01-10T06:14:20.886Z,5.20
2023-01-10T06:18:29.513Z,5.20
2023-01-10T06:22:39.677Z,5.20
2023-01-10T06:26:48.305Z,5.20
2023-01-10T06:30:56.854Z,5.10
2023-01-10T06:35:06.012Z,5.10
2023-01-10T06:39:26.425Z,5.20
2023-01-10T06:43:35.009Z,5.20
2023-01-10T06:47:43.752Z,5.30
2023-01-10T06:51:52.282Z,5.30
2023-01-10T06:56:20.247Z,5.30
2023-01-10T07:00:30.419Z,5.30
2023-01-10T07:04:39.249Z,5.30
2023-01-10T07:08:48.510Z,5.40
2023-01-10T07:12:57.769Z,5.40
2023-01-10T07:17:25.712Z,5.40
2023-01-10T07:21:34.256Z,5.40
2023-01-10T07:25:42.827Z,5.40
2023-01-10T07:29:51.496Z,5.40
2023-01-10T07:34:00.153Z,5.40
2023-01-10T07:38:09.298Z,5.40
2023-01-10T07:42:18.162Z,5.40
2023-01-10T07:46:26.991Z,5.40
2023-01-10T07:50:37.349Z,5.40
2023-01-10T07:54:47.529Z,5.40
2023-01-10T07:58:56.382Z,5.50
2023-01-10T08:03:06.684Z,5.50
2023-01-10T08:07:16.528Z,5.50
2023-01-10T08:11:25.179Z,5.50
2023-01-10T08:15:33.887Z,5.50
2023-01-10T08:19:42.617Z,5.50
2023-01-10T08:28:00.686Z,5.50
2023-01-10T08:32:10.028Z,5.40
2023-01-10T08:36:21.983Z,5.40
2023-01-10T08:40:30.964Z,5.30
2023-01-10T08:44:39.503Z,5.40
2023-01-10T08:48:49.681Z,5.50
2023-01-10T08:53:01.903Z,5.40
2023-01-10T08:57:11.515Z,5.50
2023-01-10T09:01:20.198Z,5.50
2023-01-10T09:05:28.890Z,5.50
2023-01-10T09:09:38.119Z,5.50
2023-01-10T09:13:51.279Z,5.50
2023-01-10T09:18:02.503Z,5.60
2023-01-10T09:22:11.396Z,5.70
2023-01-10T09:26:19.916Z,5.80
2023-01-10T09:30:29.908Z,5.80
2023-01-10T09:34:38.478Z,6.00
2023-01-10T09:38:47.033Z,6.00
2023-01-10T09:43:20.815Z,6.00
2023-01-10T09:47:33.207Z,6.00
2023-01-10T09:51:48.768Z,6.10
2023-01-10T09:56:00.255Z,6.20
2023-01-10T10:00:10.326Z,6.20
2023-01-10T10:04:31.315Z,6.30
2023-01-10T10:08:41.811Z,6.40
2023-01-10T10:13:26.949Z,6.40
2023-01-10T10:17:46.890Z,6.60
2023-01-10T10:22:26.133Z,6.50
2023-01-10T10:26:43.607Z,6.60
2023-01-10T10:31:01.410Z,6.60
2023-01-10T10:35:29.404Z,6.60
2023-01-10T10:39:40.985Z,6.70
2023-01-10T10:43:50.595Z,6.70
2023-01-10T10:48:02.520Z,6.80
2023-01-10T10:52:17.118Z,6.80
2023-01-10T10:56:27.515Z,6.90
2023-01-10T11:00:36.200Z,6.90
2023-01-10T11:04:45.171Z,6.90
2023-01-10T11:08:56.585Z,7.00
2023-01-10T11:13:08.209Z,7.00
2023-01-10T11:17:23.564Z,7.10
2023-01-10T11:21:32.289Z,7.10
2023-01-10T11:25:43.952Z,7.20
2023-01-10T11:30:01.401Z,7.20
2023-01-10T11:34:25.801Z,7.30
2023-01-10T11:38:35.067Z,7.30
2023-01-10T11:42:44.105Z,7.40
2023-01-10T11:46:55.731Z,7.40
2023-01-10T11:51:04.529Z,7.40
2023-01-10T11:55:21.829Z,7.40
2023-01-10T11:59:30.888Z,7.50
2023-01-10T12:03:40.345Z,7.50
2023-01-10T12:08:01.455Z,7.50
2023-01-10T12:12:19.215Z,7.50
2023-01-10T12:16:35.742Z,7.50
2023-01-10T12:20:47.563Z,7.60
2023-01-10T12:24:57.493Z,7.70
2023-01-10T12:29:09.113Z,7.70
2023-01-10T12:33:35.656Z,7.80
2023-01-10T12:37:56.236Z,7.80
2023-01-10T12:42:34.390Z,7.90
2023-01-10T12:47:06.655Z,7.90
2023-01-10T12:51:04.708Z,7.90
2023-01-10T12:55:17.952Z,7.90
2023-01-10T12:59:38.549Z,7.90
2023-01-10T13:03:49.413Z,7.90
2023-01-10T13:08:03.694Z,7.90
2023-01-10T13:12:21.509Z,7.90
2023-01-10T13:16:56.119Z,7.90
2023-01-10T13:21:12.339Z,7.90
2023-01-10T13:25:29.832Z,7.90
2023-01-10T13:29:45.215Z,7.90
2023-01-10T13:33:56.780Z,7.90
2023-01-10T13:38:05.674Z,8.00
2023-01-10T13:42:44.297Z,8.00
2023-01-10T13:46:52.854Z,7.90
2023-01-10T13:51:10.051Z,7.90
2023-01-10T13:55:28.565Z,7.90
2023-01-10T14:00:19.433Z,7.90
2023-01-10T14:04:37.053Z,8.00
2023-01-10T14:09:01.021Z,8.00
2023-01-10T14:13:12.598Z,8.00
2023-01-10T14:17:24.294Z,8.00
2023-01-10T14:21:35.913Z,8.00
2023-01-10T14:25:45.895Z,7.90
2023-01-10T14:30:21.360Z,7.90
2023-01-10T14:34:34.294Z,7.90
2023-01-10T14:38:45.907Z,7.90
2023-01-10T14:43:00.143Z,8.00
2023-01-10T14:47:11.748Z,8.00
2023-01-10T14:51:23.487Z,8.00
2023-01-10T14:55:32.087Z,7.90
2023-01-10T14:59:40.611Z,7.90
2023-01-10T15:03:49.437Z,7.90
2023-01-10T15:08:18.865Z,8.00
2023-01-10T15:12:30.076Z,8.00
2023-01-10T15:17:01.507Z,8.00
2023-01-10T15:21:15.079Z,8.00
2023-01-10T15:25:37.433Z,7.90
2023-01-10T15:29:46.961Z,7.90
2023-01-10T15:33:57.289Z,7.80
2023-01-10T15:38:11.476Z,7.80
2023-01-10T15:42:22.876Z,7.70
2023-01-10T15:46:32.704Z,7.70
2023-01-10T15:50:44.455Z,7.50
2023-01-10T15:54:54.704Z,7.50
2023-01-10T15:59:03.888Z,7.40
2023-01-10T16:03:24.857Z,7.30
2023-01-10T16:07:35.772Z,7.20
2023-01-10T16:12:07.298Z,7.20
2023-01-10T16:16:19.058Z,7.10
2023-01-10T16:20:45.855Z,7.10
2023-01-10T16:24:53.976Z,7.10
2023-01-10T16:29:02.911Z,7.00
2023-01-10T16:33:15.843Z,7.00
2023-01-10T16:37:25.105Z,6.90
2023-01-10T16:41:51.535Z,6.90
2023-01-10T16:46:00.758Z,6.80
2023-01-10T16:50:11.861Z,6.90
2023-01-10T16:54:22.519Z,6.80
2023-01-10T16:58:31.071Z,6.80
2023-01-10T17:02:39.857Z,6.80
2023-01-10T17:06:48.458Z,6.80
2023-01-10T17:11:04.489Z,6.80
2023-01-10T17:15:32.334Z,6.80
2023-01-10T17:19:42.662Z,6.80
2023-01-10T17:23:51.977Z,6.70
2023-01-10T17:28:00.548Z,6.70
2023-01-10T17:32:09.193Z,6.70
2023-01-10T17:36:19.464Z,6.70
2023-01-10T17:40:28.288Z,6.60
2023-01-10T17:44:36.857Z,6.70
2023-01-10T17:48:46.059Z,6.70
2023-01-10T17:52:54.884Z,6.70
2023-01-10T17:57:07.198Z,6.60
2023-01-10T18:01:24.622Z,6.70
2023-01-10T18:05:35.044Z,6.60
2023-01-10T18:09:45.449Z,6.60
2023-01-10T18:13:57.813Z,6.60
2023-01-10T18:18:06.515Z,6.60
2023-01-10T18:22:33.113Z,6.60
2023-01-10T18:26:41.669Z,6.60
2023-01-10T18:30:50.337Z,6.60
2023-01-10T18:34:59.976Z,6.60
2023-01-10T18:39:08.548Z,6.60
2023-01-10T18:43:17.141Z,6.60
2023-01-10T18:47:26.383Z,6.60
2023-01-10T18:51:35.005Z,6.60
2023-01-10T18:55:46.714Z,6.60
2023-01-10T18:59:55.350Z,6.60
2023-01-10T19:04:05.050Z,6.60
2023-01-10T19:08:14.038Z,6.60
2023-01-10T19:12:25.517Z,6.60
2023-01-10T19:16:34.144Z,6.60
2023-01-10T19:20:46.052Z,6.70
2023-01-10T19:24:54.679Z,6.70
2023-01-10T19:29:06.286Z,6.60
2023-01-10T19:33:14.769Z,6.60
2023-01-10T19:37:23.333Z,6.70
2023-01-10T19:41:31.964Z,6.70
2023-01-10T19:45:43.659Z,6.70
2023-01-10T19:49:52.405Z,6.70
2023-01-10T19:54:01.045Z,6.70
2023-01-10T19:58:14.157Z,6.70
2023-01-10T20:02:24.228Z,6.70
2023-01-10T20:06:38.122Z,6.70
2023-01-10T20:10:48.727Z,6.70
2023-01-10T20:14:57.414Z,6.70
2023-01-10T20:19:08.181Z,6.70
2023-01-10T20:27:32.974Z,6.70
2023-01-10T20:31:43.018Z,6.70
2023-01-10T20:36:04.159Z,6.80
2023-01-10T20:40:13.120Z,6.80
2023-01-10T20:44:21.666Z,6.80
2023-01-10T20:48:34.093Z,6.80
2023-01-10T20:53:09.706Z,6.80
2023-01-10T20:57:22.433Z,6.80
2023-01-10T21:01:35.763Z,6.80
2023-01-10T21:05:53.443Z,6.80
2023-01-10T21:10:03.387Z,6.90
2023-01-10T21:14:14.508Z,6.90
2023-01-10T21:18:25.026Z,6.90
2023-01-10T21:22:33.558Z,6.90
2023-01-10T21:26:42.382Z,7.00
2023-01-10T21:30:52.549Z,7.00
2023-01-10T21:35:01.077Z,7.10
2023-01-10T21:39:10.113Z,7.10
2023-01-10T21:43:20.275Z,7.00
2023-01-10T21:47:29.425Z,7.10
2023-01-10T21:51:47.821Z,7.10
2023-01-10T21:56:01.974Z,7.10
2023-01-10T22:00:14.140Z,7.10
2023-01-10T22:04:48.888Z,7.10
2023-01-10T22:09:00.766Z,7.20
2023-01-10T22:13:09.323Z,7.10
2023-01-10T22:17:18.396Z,7.20
2023-01-10T22:21:26.989Z,7.20
2023-01-10T22:25:35.621Z,7.20
2023-01-10T22:29:45.281Z,7.30
2023-01-10T22:33:53.779Z,7.30
2023-01-10T22:38:02.333Z,7.30
2023-01-10T22:42:10.919Z,7.30
2023-01-10T22:46:19.718Z,7.40
2023-01-10T22:50:29.868Z,7.40
2023-01-10T22:54:38.472Z,7.40
2023-01-10T22:58:51.395Z,7.40
2023-01-10T23:03:00.470Z,7.40
2023-01-10T23:07:09.002Z,7.40
2023-01-10T23:11:22.506Z,7.40
2023-01-10T23:15:32.079Z,7.40
2023-01-10T23:19:40.690Z,7.40
2023-01-10T23:23:49.242Z,7.40
2023-01-10T23:27:57.846Z,7.40
2023-01-10T23:32:06.539Z,7.50
2023-01-10T23:36:15.767Z,7.50
2023-01-10T23:40:24.315Z,7.50
2023-01-10T23:44:33.641Z,7.60
2023-01-10T23:48:43.137Z,7.50
2023-01-10T23:52:52.284Z,7.50
2023-01-10T23:57:00.912Z,7.60
